createdAt,value
2019-03-27T00:00:48.882Z,99739.03
2019-03-27T00:03:17.413Z,99734.59
2019-03-27T00:05:45.626Z,99730.59
2019-03-27T00:08:13.831Z,99735.13
2019-03-27T00:10:42.034Z,99739.99
2019-03-27T00:13:10.231Z,99735.50
2019-03-27T00:15:38.467Z,99737.77
2019-03-27T00:18:06.960Z,99743.17
2019-03-27T00:20:35.179Z,99739.64
2019-03-27T00:23:03.415Z,99734.17
2019-03-27T00:25:31.659Z,99733.32
2019-03-27T00:28:00.096Z,99733.36
2019-03-27T00:30:28.317Z,99740.48
2019-03-27T00:32:56.519Z,99737.81
2019-03-27T00:35:25.002Z,99736.97
2019-03-27T00:37:53.193Z,99740.03
2019-03-27T00:40:21.753Z,99737.84
2019-03-27T00:42:50.240Z,99736.08
2019-03-27T00:45:26.611Z,99737.84
2019-03-27T00:47:48.391Z,99743.21
2019-03-27T00:50:16.634Z,99740.57
2019-03-27T00:52:45.374Z,99736.16
2019-03-27T00:55:13.963Z,99735.66
2019-03-27T00:57:42.180Z,99738.77
2019-03-27T01:00:27.717Z,99734.28
2019-03-27T01:02:55.934Z,99733.41
2019-03-27T01:05:24.137Z,99732.52
2019-03-27T01:07:52.362Z,99731.59
2019-03-27T01:10:22.780Z,99733.40
2019-03-27T01:12:50.565Z,99725.35
2019-03-27T01:15:19.124Z,99730.72
2019-03-27T01:17:47.605Z,99730.34
2019-03-27T01:20:15.805Z,99727.69
2019-03-27T01:22:44.364Z,99732.17
2019-03-27T01:25:12.558Z,99733.02
2019-03-27T01:27:40.767Z,99730.34
2019-03-27T01:30:08.963Z,99731.17
2019-03-27T01:32:37.174Z,99721.78
2019-03-27T01:35:05.371Z,99726.69
2019-03-27T01:37:33.588Z,99729.42
2019-03-27T01:40:01.783Z,99725.97
2019-03-27T01:42:29.993Z,99716.66
2019-03-27T01:44:58.201Z,99721.56
2019-03-27T01:47:26.705Z,99727.30
2019-03-27T01:49:54.907Z,99735.24
2019-03-27T01:52:23.115Z,99739.65
2019-03-27T01:54:51.312Z,99737.92
2019-03-27T01:57:19.535Z,99739.27
2019-03-27T01:59:47.723Z,99736.63
2019-03-27T02:02:15.935Z,99735.39
2019-03-27T02:04:44.430Z,99736.66
2019-03-27T02:07:12.640Z,99726.81
2019-03-27T02:09:40.852Z,99733.02
2019-03-27T02:12:09.282Z,99733.05
2019-03-27T02:14:37.478Z,99738.46
2019-03-27T02:17:05.710Z,99734.86
2019-03-27T02:19:33.901Z,99738.95
2019-03-27T02:22:02.102Z,99736.34
2019-03-27T02:24:30.557Z,99740.38
2019-03-27T02:26:58.759Z,99739.95
2019-03-27T02:29:26.953Z,99748.45
2019-03-27T02:31:55.161Z,99743.09
2019-03-27T02:34:23.373Z,99746.23
2019-03-27T02:36:51.580Z,99740.34
2019-03-27T02:39:20.095Z,99737.08
2019-03-27T02:41:48.572Z,99741.11
2019-03-27T02:44:16.772Z,99736.28
2019-03-27T02:46:44.970Z,99739.91
2019-03-27T02:49:13.176Z,99740.88
2019-03-27T02:51:41.701Z,99741.30
2019-03-27T02:54:09.900Z,99743.05
2019-03-27T02:56:39.728Z,99744.89
2019-03-27T02:59:08.246Z,99743.98
2019-03-27T03:01:36.455Z,99748.45
2019-03-27T03:04:06.281Z,99747.54
2019-03-27T03:06:34.474Z,99746.70
2019-03-27T03:09:02.945Z,99740.48
2019-03-27T03:11:31.147Z,99744.02
2019-03-27T03:13:59.487Z,99744.02
2019-03-27T03:16:41.266Z,99742.71
2019-03-27T03:18:57.863Z,99747.62
2019-03-27T03:21:26.442Z,99749.84
2019-03-27T03:23:54.622Z,99748.07
2019-03-27T03:26:22.814Z,99757.35
2019-03-27T03:28:51.031Z,99754.70
2019-03-27T03:31:19.527Z,99755.59
2019-03-27T03:33:47.733Z,99759.27
2019-03-27T03:36:16.196Z,99750.30
2019-03-27T03:38:44.403Z,99756.50
2019-03-27T03:41:12.625Z,99759.64
2019-03-27T03:43:40.833Z,99760.11
2019-03-27T03:46:09.024Z,99752.06
2019-03-27T03:48:37.239Z,99749.84
2019-03-27T03:51:05.727Z,99757.81
2019-03-27T03:53:33.934Z,99761.88
2019-03-27T03:56:02.127Z,99755.17
2019-03-27T03:58:30.714Z,99758.77
2019-03-27T04:01:00.515Z,99752.13
2019-03-27T04:03:28.730Z,99751.71
2019-03-27T04:05:56.934Z,99747.62
2019-03-27T04:08:25.510Z,99750.72
2019-03-27T04:10:53.982Z,99752.52
2019-03-27T04:13:22.183Z,99756.05
2019-03-27T04:15:50.388Z,99759.61
2019-03-27T04:18:20.224Z,99756.93
2019-03-27T04:20:48.428Z,99755.66
2019-03-27T04:23:16.631Z,99748.67
2019-03-27T04:26:08.072Z,99753.97
2019-03-27T04:28:14.748Z,99753.52
2019-03-27T04:30:42.941Z,99766.39
2019-03-27T04:33:11.152Z,99768.61
2019-03-27T04:35:39.591Z,99778.88
2019-03-27T04:38:07.787Z,99772.21
2019-03-27T04:40:36.008Z,99767.80
2019-03-27T04:43:04.191Z,99765.97
2019-03-27T04:45:32.406Z,99754.78
2019-03-27T04:48:00.607Z,99764.55
2019-03-27T04:50:28.818Z,99759.72
2019-03-27T04:52:57.331Z,99758.91
2019-03-27T04:55:25.550Z,99764.70
2019-03-27T04:57:53.740Z,99761.52
2019-03-27T05:00:21.946Z,99762.83
2019-03-27T05:02:50.443Z,99767.73
2019-03-27T05:05:19.027Z,99764.63
2019-03-27T05:07:47.221Z,99775.92
2019-03-27T05:10:15.434Z,99777.65
2019-03-27T05:12:43.633Z,99784.32
2019-03-27T05:15:11.842Z,99771.79
2019-03-27T05:17:45.835Z,99785.30
2019-03-27T05:20:09.975Z,99784.50
2019-03-27T05:22:38.179Z,99786.30
2019-03-27T05:25:07.061Z,99788.03
2019-03-27T05:27:36.481Z,99784.50
2019-03-27T05:30:06.379Z,99790.78
2019-03-27T05:32:34.654Z,99802.84
2019-03-27T05:35:02.935Z,99796.56
2019-03-27T05:37:31.143Z,99800.20
2019-03-27T05:39:59.347Z,99802.39
2019-03-27T05:42:27.544Z,99808.20
2019-03-27T05:44:55.827Z,99806.41
2019-03-27T05:47:24.020Z,99804.64
2019-03-27T05:49:52.230Z,99802.42
2019-03-27T05:52:20.430Z,99801.02
2019-03-27T05:54:48.639Z,99803.70
2019-03-27T05:57:17.138Z,99816.68
2019-03-27T05:59:45.703Z,99823.38
2019-03-27T06:02:13.903Z,99819.78
2019-03-27T06:04:42.455Z,99820.67
2019-03-27T06:07:10.944Z,99824.23
2019-03-27T06:09:39.517Z,99829.14
2019-03-27T06:12:07.730Z,99841.20
2019-03-27T06:14:35.952Z,99844.77
2019-03-27T06:17:04.151Z,99845.20
2019-03-27T06:19:32.369Z,99849.19
2019-03-27T06:22:00.565Z,99854.55
2019-03-27T06:24:29.076Z,99852.75
2019-03-27T06:26:57.272Z,99844.70
2019-03-27T06:29:25.495Z,99851.41
2019-03-27T06:31:53.696Z,99855.43
2019-03-27T06:34:22.280Z,99856.77
2019-03-27T06:36:50.482Z,99849.19
2019-03-27T06:39:18.773Z,99843.78
2019-03-27T06:41:46.976Z,99852.16
2019-03-27T06:44:15.182Z,99860.17
2019-03-27T06:46:43.374Z,99869.13
2019-03-27T06:49:11.838Z,99864.16
2019-03-27T06:51:40.639Z,99873.48
2019-03-27T06:54:08.924Z,99871.22
2019-03-27T06:56:37.127Z,99869.35
2019-03-27T06:59:05.334Z,99861.73
2019-03-27T07:01:33.545Z,99858.58
2019-03-27T07:04:10.419Z,99851.88
2019-03-27T07:06:31.935Z,99857.23
2019-03-27T07:09:00.145Z,99863.00
2019-03-27T07:11:28.429Z,99862.08
2019-03-27T07:13:56.952Z,99861.13
2019-03-27T07:16:25.427Z,99855.72
2019-03-27T07:18:53.638Z,99863.73
2019-03-27T07:21:21.849Z,99862.85
2019-03-27T07:23:50.369Z,99859.25
2019-03-27T07:26:18.576Z,99861.86
2019-03-27T07:28:46.874Z,99859.53
2019-03-27T07:31:15.397Z,99861.72
2019-03-27T07:33:43.605Z,99861.22
2019-03-27T07:36:11.815Z,99869.66
2019-03-27T07:38:40.026Z,99866.48
2019-03-27T07:41:08.232Z,99862.38
2019-03-27T07:43:36.448Z,99870.39
2019-03-27T07:46:04.648Z,99867.66
2019-03-27T07:48:32.851Z,99870.28
2019-03-27T07:51:01.399Z,99882.70
2019-03-27T07:53:29.880Z,99881.67
2019-03-27T07:55:58.105Z,99884.24
2019-03-27T07:58:26.312Z,99887.77
2019-03-27T08:00:54.554Z,99889.45
2019-03-27T08:03:22.766Z,99900.63
2019-03-27T08:05:51.265Z,99896.55
2019-03-27T08:08:19.475Z,99901.47
2019-03-27T08:10:47.687Z,99903.27
2019-03-27T08:13:16.256Z,99904.15
2019-03-27T08:15:46.829Z,99911.20
2019-03-27T08:18:15.030Z,99912.52
2019-03-27T08:20:43.247Z,99912.39
2019-03-27T08:23:11.455Z,99911.01
2019-03-27T08:25:40.025Z,99915.00
2019-03-27T08:28:08.229Z,99918.95
2019-03-27T08:30:36.452Z,99919.71
2019-03-27T08:33:04.963Z,99921.70
2019-03-27T08:35:33.187Z,99922.63
2019-03-27T08:38:01.717Z,99928.62
2019-03-27T08:40:29.932Z,99919.59
2019-03-27T08:42:58.476Z,99923.52
2019-03-27T08:45:26.686Z,99933.07
2019-03-27T08:47:54.897Z,99924.16
2019-03-27T08:50:23.112Z,99928.75
2019-03-27T08:52:51.320Z,99930.97
2019-03-27T08:55:19.853Z,99942.57
2019-03-27T08:57:48.069Z,99948.31
2019-03-27T09:00:21.331Z,99949.66
2019-03-27T09:02:49.801Z,99952.06
2019-03-27T09:05:18.296Z,99952.34
2019-03-27T09:07:46.493Z,99943.33
2019-03-27T09:10:14.942Z,99945.83
2019-03-27T09:12:43.138Z,99952.46
2019-03-27T09:15:11.367Z,99946.72
2019-03-27T09:17:39.543Z,99940.81
2019-03-27T09:20:07.747Z,99943.45
2019-03-27T09:22:35.963Z,99951.27
2019-03-27T09:25:07.770Z,99951.23
2019-03-27T09:27:35.988Z,99949.41
2019-03-27T09:30:07.171Z,99955.58
2019-03-27T09:32:35.662Z,99957.05
2019-03-27T09:35:04.401Z,99956.36
2019-03-27T09:37:32.623Z,99952.35
2019-03-27T09:40:01.112Z,99958.70
2019-03-27T09:42:29.326Z,99962.59
2019-03-27T09:44:57.524Z,99970.74
2019-03-27T09:47:26.033Z,99968.91
2019-03-27T09:49:54.236Z,99964.73
2019-03-27T09:52:22.793Z,99973.42
2019-03-27T09:54:53.105Z,99970.09
2019-03-27T09:57:21.294Z,99971.36
2019-03-27T09:59:49.779Z,99972.78
2019-03-27T10:02:18.353Z,99975.00
2019-03-27T10:04:46.546Z,99979.41
2019-03-27T10:07:15.111Z,99979.70
2019-03-27T10:09:43.307Z,99971.13
2019-03-27T10:12:11.521Z,99970.11
2019-03-27T10:14:40.039Z,99970.94
2019-03-27T10:17:08.256Z,99971.88
2019-03-27T10:19:36.449Z,99970.11
2019-03-27T10:22:04.674Z,99973.69
2019-03-27T10:24:32.874Z,99973.17
2019-03-27T10:27:01.083Z,99972.58
2019-03-27T10:29:29.287Z,99973.73
2019-03-27T10:31:57.497Z,99974.97
2019-03-27T10:34:25.696Z,99979.14
2019-03-27T10:36:53.957Z,99977.16
2019-03-27T10:39:22.497Z,99983.61
2019-03-27T10:41:50.710Z,99982.28
2019-03-27T10:44:19.249Z,99983.09
2019-03-27T10:46:47.446Z,99987.42
2019-03-27T10:49:15.649Z,99982.85
2019-03-27T10:51:43.847Z,99981.11
2019-03-27T10:54:12.454Z,99984.70
2019-03-27T10:56:40.655Z,99983.41
2019-03-27T10:59:08.855Z,99990.19
2019-03-27T11:01:37.056Z,99987.02
2019-03-27T11:04:05.265Z,99986.02
2019-03-27T11:06:33.551Z,99984.70
2019-03-27T11:09:01.751Z,99974.30
2019-03-27T11:11:29.956Z,99976.15
2019-03-27T11:13:58.463Z,99983.27
2019-03-27T11:16:26.659Z,99988.38
2019-03-27T11:18:54.863Z,99980.44
2019-03-27T11:21:23.477Z,99979.94
2019-03-27T11:23:51.671Z,99984.89
2019-03-27T11:26:19.879Z,99985.78
2019-03-27T11:28:48.164Z,99982.34
2019-03-27T11:31:16.368Z,99977.98
2019-03-27T11:33:44.738Z,99978.86
2019-03-27T11:36:13.255Z,99975.75
2019-03-27T11:38:41.458Z,99975.89
2019-03-27T11:41:12.226Z,99968.55
2019-03-27T11:43:39.592Z,99965.34
2019-03-27T11:46:07.789Z,99974.17
2019-03-27T11:48:36.471Z,99978.64
2019-03-27T11:51:04.667Z,99971.20
2019-03-27T11:53:32.874Z,99969.33
2019-03-27T11:56:03.338Z,99970.14
2019-03-27T11:58:31.320Z,99968.91
2019-03-27T12:00:59.519Z,99970.41
2019-03-27T12:03:27.718Z,99969.39
2019-03-27T12:05:55.925Z,99970.16
2019-03-27T12:08:24.114Z,99972.69
2019-03-27T12:10:52.591Z,99972.96
2019-03-27T12:13:20.795Z,99979.88
2019-03-27T12:15:48.994Z,99968.59
2019-03-27T12:18:17.444Z,99969.87
2019-03-27T12:20:58.213Z,99973.02
2019-03-27T12:23:15.919Z,99979.06
2019-03-27T12:25:44.118Z,99972.84
2019-03-27T12:28:12.677Z,99975.26
2019-03-27T12:30:40.870Z,99966.01
2019-03-27T12:33:09.088Z,99971.66
2019-03-27T12:35:37.602Z,99971.80
2019-03-27T12:38:05.862Z,99966.61
2019-03-27T12:40:34.005Z,99973.98
2019-03-27T12:43:02.214Z,99967.00
2019-03-27T12:45:30.429Z,99964.84
2019-03-27T12:47:58.627Z,99974.42
2019-03-27T12:50:26.838Z,99970.37
2019-03-27T12:52:55.338Z,99967.26
2019-03-27T12:55:23.559Z,99963.00
2019-03-27T12:57:52.099Z,99961.83
2019-03-27T13:00:20.322Z,99963.64
2019-03-27T13:02:48.523Z,99961.53
2019-03-27T13:05:16.727Z,99966.94
2019-03-27T13:07:50.174Z,99968.00
2019-03-27T13:10:15.415Z,99971.58
2019-03-27T13:12:43.609Z,99963.83
2019-03-27T13:15:11.832Z,99959.77
2019-03-27T13:17:40.345Z,99956.00
2019-03-27T13:20:08.831Z,99964.35
2019-03-27T13:22:38.396Z,99967.75
2019-03-27T13:25:07.355Z,99972.40
2019-03-27T13:27:35.907Z,99973.16
2019-03-27T13:30:06.667Z,99969.58
2019-03-27T13:32:34.859Z,99959.00
2019-03-27T13:35:03.541Z,99966.52
2019-03-27T13:37:31.735Z,99966.34
2019-03-27T13:40:00.561Z,99963.91
2019-03-27T13:42:29.044Z,99966.00
2019-03-27T13:44:57.253Z,99967.14
2019-03-27T13:47:25.450Z,99973.42
2019-03-27T13:49:53.978Z,99970.16
2019-03-27T13:52:22.175Z,99972.40
2019-03-27T13:54:50.387Z,99973.48
2019-03-27T13:57:18.582Z,99971.02
2019-03-27T13:59:47.079Z,99967.11
2019-03-27T14:02:15.278Z,99963.76
2019-03-27T14:04:43.834Z,99972.47
2019-03-27T14:07:12.038Z,99969.41
2019-03-27T14:09:40.246Z,99961.67
2019-03-27T14:12:08.451Z,99957.13
2019-03-27T14:14:49.743Z,99952.48
2019-03-27T14:17:06.578Z,99948.27
2019-03-27T14:19:34.789Z,99945.45
2019-03-27T14:22:02.995Z,99947.65
2019-03-27T14:24:31.206Z,99949.05
2019-03-27T14:26:59.752Z,99954.48
2019-03-27T14:29:28.233Z,99956.77
2019-03-27T14:31:56.437Z,99955.02
2019-03-27T14:34:24.992Z,99946.20
2019-03-27T14:36:53.194Z,99946.27
2019-03-27T14:39:21.408Z,99941.27
2019-03-27T14:41:49.946Z,99946.44
2019-03-27T14:44:18.150Z,99951.99
2019-03-27T14:46:46.356Z,99951.17
2019-03-27T14:49:14.563Z,99945.71
2019-03-27T14:51:43.218Z,99944.71
2019-03-27T14:54:11.713Z,99944.30
2019-03-27T14:56:39.946Z,99942.95
2019-03-27T14:59:09.783Z,99946.59
2019-03-27T15:01:37.983Z,99942.25
2019-03-27T15:04:06.174Z,99945.91
2019-03-27T15:06:34.374Z,99939.95
2019-03-27T15:09:04.222Z,99938.36
2019-03-27T15:11:32.715Z,99934.72
2019-03-27T15:14:01.189Z,99938.36
2019-03-27T15:16:29.679Z,99933.97
2019-03-27T15:18:58.156Z,99936.78
2019-03-27T15:21:26.635Z,99940.98
2019-03-27T15:23:55.123Z,99938.87
2019-03-27T15:26:23.324Z,99938.45
2019-03-27T15:28:51.550Z,99934.41
2019-03-27T15:31:21.065Z,99937.17
2019-03-27T15:33:49.658Z,99931.41
2019-03-27T15:36:18.151Z,99931.88
2019-03-27T15:38:46.338Z,99931.08
2019-03-27T15:41:14.539Z,99930.80
2019-03-27T15:43:42.745Z,99935.84
2019-03-27T15:46:11.243Z,99931.87
2019-03-27T15:48:39.443Z,99938.27
2019-03-27T15:51:07.654Z,99939.67
2019-03-27T15:53:35.843Z,99937.09
2019-03-27T15:56:04.354Z,99934.51
2019-03-27T15:58:32.545Z,99927.89
2019-03-27T16:01:01.109Z,99928.48
2019-03-27T16:03:29.305Z,99927.66
2019-03-27T16:05:57.859Z,99924.16
2019-03-27T16:08:26.055Z,99931.39
2019-03-27T16:10:54.260Z,99926.58
2019-03-27T16:13:22.461Z,99933.44
2019-03-27T16:15:50.676Z,99936.27
2019-03-27T16:18:19.236Z,99930.98
2019-03-27T16:20:47.451Z,99935.61
2019-03-27T16:23:15.650Z,99933.02
2019-03-27T16:25:43.858Z,99939.37
2019-03-27T16:28:12.063Z,99942.13
2019-03-27T16:30:40.288Z,99942.23
2019-03-27T16:33:08.796Z,99943.69
2019-03-27T16:35:36.996Z,99938.89
2019-03-27T16:38:05.203Z,99937.18
2019-03-27T16:40:44.143Z,99941.86
2019-03-27T16:43:12.521Z,99942.81
2019-03-27T16:45:40.724Z,99948.30
2019-03-27T16:48:08.938Z,99946.65
2019-03-27T16:50:37.146Z,99945.41
2019-03-27T16:53:05.383Z,99946.83
2019-03-27T16:55:33.925Z,99945.22
2019-03-27T16:58:02.508Z,99946.20
2019-03-27T17:00:30.712Z,99947.56
2019-03-27T17:02:58.941Z,99948.97
2019-03-27T17:05:27.142Z,99945.86
2019-03-27T17:07:55.356Z,99960.69
2019-03-27T17:10:23.892Z,99954.05
2019-03-27T17:12:52.141Z,99962.65
2019-03-27T17:15:20.346Z,99964.48
2019-03-27T17:17:48.918Z,99971.28
2019-03-27T17:20:17.120Z,99966.88
2019-03-27T17:22:45.333Z,99964.28
2019-03-27T17:25:15.691Z,99965.27
2019-03-27T17:27:43.932Z,99968.48
2019-03-27T17:30:12.450Z,99977.45
2019-03-27T17:32:40.667Z,99972.63
2019-03-27T17:35:09.204Z,99986.62
2019-03-27T17:37:37.786Z,99987.64
2019-03-27T17:40:06.340Z,99992.21
2019-03-27T17:42:34.635Z,99992.31
2019-03-27T17:45:02.856Z,99990.64
2019-03-27T17:47:32.720Z,99992.50
2019-03-27T17:50:01.224Z,99998.37
2019-03-27T17:52:29.457Z,99996.19
2019-03-27T17:54:57.752Z,99999.44
2019-03-27T17:57:25.974Z,100000.83
2019-03-27T17:59:54.528Z,100004.91
2019-03-27T18:02:22.743Z,99998.24
2019-03-27T18:04:50.957Z,100005.44
2019-03-27T18:07:19.470Z,100000.05
2019-03-27T18:09:47.669Z,100004.84
2019-03-27T18:12:16.347Z,100002.30
2019-03-27T18:14:44.547Z,100001.41
2019-03-27T18:17:12.796Z,100001.41
2019-03-27T18:19:40.976Z,100001.92
2019-03-27T18:22:09.198Z,100004.14
2019-03-27T18:24:37.696Z,100001.50
2019-03-27T18:27:05.909Z,100006.47
2019-03-27T18:29:34.466Z,100002.42
2019-03-27T18:32:02.677Z,100001.08
2019-03-27T18:34:30.906Z,100001.55
2019-03-27T18:36:59.121Z,100001.55
2019-03-27T18:39:27.405Z,100008.80
2019-03-27T18:41:55.648Z,100009.72
2019-03-27T18:44:23.852Z,100006.56
2019-03-27T18:46:52.401Z,100013.34
2019-03-27T18:49:21.011Z,100007.09
2019-03-27T18:51:49.218Z,100006.66
2019-03-27T18:54:17.426Z,100008.98
2019-03-27T18:56:45.654Z,100014.84
2019-03-27T18:59:13.893Z,100010.42
2019-03-27T19:01:42.115Z,100014.05
2019-03-27T19:04:10.332Z,100009.63
2019-03-27T19:06:38.885Z,100012.37
2019-03-27T19:09:08.526Z,100009.25
2019-03-27T19:11:36.727Z,100004.80
2019-03-27T19:14:05.265Z,100008.88
2019-03-27T19:16:33.463Z,100012.92
2019-03-27T19:19:01.673Z,100012.05
2019-03-27T19:21:29.879Z,100013.02
2019-03-27T19:23:58.086Z,100013.02
2019-03-27T19:26:26.288Z,100016.20
2019-03-27T19:28:54.666Z,100018.90
2019-03-27T19:31:22.880Z,100017.55
2019-03-27T19:33:51.097Z,100017.55
2019-03-27T19:36:19.649Z,100019.32
2019-03-27T19:38:47.860Z,100021.17
2019-03-27T19:41:16.069Z,100013.60
2019-03-27T19:43:44.350Z,100020.84
2019-03-27T19:46:12.563Z,100023.52
2019-03-27T19:48:40.834Z,100018.61
2019-03-27T19:51:11.373Z,100014.66
2019-03-27T19:53:39.312Z,100012.48
2019-03-27T19:56:07.521Z,100022.82
2019-03-27T19:58:36.066Z,100022.86
2019-03-27T20:01:04.885Z,100020.63
2019-03-27T20:03:34.821Z,100025.17
2019-03-27T20:06:03.463Z,100025.18
2019-03-27T20:08:31.695Z,100018.95
2019-03-27T20:10:59.974Z,100026.14
2019-03-27T20:13:28.192Z,100023.50
2019-03-27T20:15:56.391Z,100028.91
2019-03-27T20:18:24.613Z,100025.38
2019-03-27T20:20:52.822Z,100027.66
2019-03-27T20:23:21.024Z,100026.34
2019-03-27T20:25:49.237Z,100030.81
2019-03-27T20:28:17.741Z,100026.36
2019-03-27T20:30:45.948Z,100027.32
2019-03-27T20:33:14.496Z,100029.12
2019-03-27T20:35:42.716Z,100036.31
2019-03-27T20:38:11.817Z,100037.23
2019-03-27T20:40:41.969Z,100039.08
2019-03-27T20:43:10.166Z,100044.92
2019-03-27T20:45:38.375Z,100040.47
2019-03-27T20:48:06.586Z,100039.58
2019-03-27T20:50:37.162Z,100040.97
2019-03-27T20:53:05.358Z,100036.02
2019-03-27T20:55:33.567Z,100044.08
2019-03-27T20:58:02.077Z,100042.31
2019-03-27T21:00:30.309Z,100042.36
2019-03-27T21:02:58.516Z,100044.63
2019-03-27T21:05:26.725Z,100040.59
2019-03-27T21:07:55.291Z,100040.17
2019-03-27T21:10:23.497Z,100046.05
2019-03-27T21:12:51.700Z,100045.59
2019-03-27T21:15:20.270Z,100049.66
2019-03-27T21:17:48.408Z,100045.66
2019-03-27T21:20:16.642Z,100049.23
2019-03-27T21:22:45.135Z,100051.92
2019-03-27T21:25:13.355Z,100053.73
2019-03-27T21:27:41.551Z,100060.48
2019-03-27T21:30:10.333Z,100056.45
2019-03-27T21:32:38.891Z,100061.37
2019-03-27T21:35:08.257Z,100059.16
2019-03-27T21:37:36.715Z,100058.73
2019-03-27T21:40:07.679Z,100057.84
2019-03-27T21:42:35.886Z,100055.16
2019-03-27T21:45:06.691Z,100064.14
2019-03-27T21:47:34.893Z,100065.52
2019-03-27T21:50:04.939Z,100061.49
2019-03-27T21:52:33.172Z,100063.30
2019-03-27T21:55:01.735Z,100068.25
2019-03-27T21:57:30.769Z,100064.22
2019-03-27T21:59:59.386Z,100071.41
2019-03-27T22:02:27.888Z,100073.67
2019-03-27T22:04:56.123Z,100067.41
2019-03-27T22:07:24.588Z,100067.87
2019-03-27T22:09:52.802Z,100066.10
2019-03-27T22:12:21.304Z,100070.13
2019-03-27T22:14:49.528Z,100074.59
2019-03-27T22:17:17.730Z,100076.40
2019-03-27T22:19:45.945Z,100074.17
2019-03-27T22:22:14.150Z,100073.75
2019-03-27T22:24:42.703Z,100079.16
2019-03-27T22:27:10.944Z,100076.94
2019-03-27T22:29:39.497Z,100074.28
2019-03-27T22:32:07.695Z,100071.17
2019-03-27T22:34:37.557Z,100077.01
2019-03-27T22:37:05.756Z,100080.16
2019-03-27T22:39:33.980Z,100075.70
2019-03-27T22:42:02.311Z,100076.66
2019-03-27T22:44:30.837Z,100081.14
2019-03-27T22:46:59.046Z,100089.22
2019-03-27T22:49:27.269Z,100088.75
2019-03-27T22:51:55.541Z,100090.59
2019-03-27T22:54:23.757Z,100092.36
2019-03-27T22:56:52.041Z,100088.36
2019-03-27T22:59:20.264Z,100087.48
2019-03-27T23:01:48.464Z,100087.94
2019-03-27T23:04:16.760Z,100096.46
2019-03-27T23:06:44.956Z,100092.89
2019-03-27T23:09:13.174Z,100090.24
2019-03-27T23:11:41.672Z,100093.84
2019-03-27T23:14:09.882Z,100094.30
2019-03-27T23:16:38.108Z,100094.77
2019-03-27T23:19:06.601Z,100095.22
2019-03-27T23:21:34.810Z,100101.52
2019-03-27T23:24:03.022Z,100093.45
2019-03-27T23:26:31.234Z,100102.90
2019-03-27T23:28:59.446Z,100101.17
2019-03-27T23:31:27.976Z,100101.59
2019-03-27T23:33:56.198Z,100101.63
2019-03-27T23:36:24.734Z,100097.63
2019-03-27T23:38:53.220Z,100097.63
2019-03-27T23:41:21.803Z,100095.44
2019-03-27T23:43:50.020Z,100093.67
2019-03-27T23:46:18.558Z,100092.33
2019-03-27T23:48:46.768Z,100089.22
2019-03-27T23:51:14.989Z,100085.19
2019-03-27T23:53:43.191Z,100089.25
2019-03-27T23:56:16.838Z,100090.63
2019-03-27T23:58:41.697Z,100092.00
